sensor_id;sensor_type;location;lat;lon;timestamp;P1;durP1;ratioP1;P2;durP2;ratioP2
81475;SDS011;70891;52.540;5.504;2023-06-22T00:01:16;21.70;;;12.73;;
81475;SDS011;70891;52.540;5.504;2023-06-22T00:03:42;23.95;;;11.98;;
81475;SDS011;70891;52.540;5.504;2023-06-22T00:06:07;26.23;;;13.13;;
81475;SDS011;70891;52.540;5.504;2023-06-22T00:08:32;30.47;;;14.27;;
81475;SDS011;70891;52.540;5.504;2023-06-22T00:10:58;27.77;;;15.10;;
81475;SDS011;70891;52.540;5.504;2023-06-22T00:13:23;26.93;;;13.50;;
81475;SDS011;70891;52.540;5.504;2023-06-22T00:15:48;29.40;;;15.93;;
81475;SDS011;70891;52.540;5.504;2023-06-22T00:18:14;26.03;;;13.57;;
81475;SDS011;70891;52.540;5.504;2023-06-22T00:20:39;24.70;;;13.13;;
81475;SDS011;70891;52.540;5.504;2023-06-22T00:23:05;27.87;;;14.97;;
81475;SDS011;70891;52.540;5.504;2023-06-22T00:25:36;27.35;;;15.05;;
81475;SDS011;70891;52.540;5.504;2023-06-22T00:28:03;27.42;;;14.73;;
81475;SDS011;70891;52.540;5.504;2023-06-22T00:30:30;28.13;;;14.82;;
81475;SDS011;70891;52.540;5.504;2023-06-22T00:32:55;27.00;;;14.15;;
81475;SDS011;70891;52.540;5.504;2023-06-22T00:35:21;28.23;;;14.67;;
81475;SDS011;70891;52.540;5.504;2023-06-22T00:37:46;32.88;;;16.75;;
81475;SDS011;70891;52.540;5.504;2023-06-22T00:40:11;35.67;;;17.33;;
81475;SDS011;70891;52.540;5.504;2023-06-22T00:42:38;30.42;;;16.83;;
81475;SDS011;70891;52.540;5.504;2023-06-22T00:45:07;33.83;;;17.27;;
81475;SDS011;70891;52.540;5.504;2023-06-22T00:47:35;31.25;;;16.77;;
81475;SDS011;70891;52.540;5.504;2023-06-22T00:50:01;24.58;;;13.93;;
81475;SDS011;70891;52.540;5.504;2023-06-22T00:52:28;27.08;;;15.57;;
81475;SDS011;70891;52.540;5.504;2023-06-22T00:54:56;27.88;;;14.48;;
81475;SDS011;70891;52.540;5.504;2023-06-22T00:57:21;31.40;;;17.10;;
81475;SDS011;70891;52.540;5.504;2023-06-22T00:59:50;35.22;;;18.55;;
81475;SDS011;70891;52.540;5.504;2023-06-22T01:02:15;34.78;;;17.30;;
81475;SDS011;70891;52.540;5.504;2023-06-22T01:04:40;37.07;;;18.53;;
81475;SDS011;70891;52.540;5.504;2023-06-22T01:09:40;33.33;;;18.15;;
81475;SDS011;70891;52.540;5.504;2023-06-22T01:12:14;37.25;;;19.40;;
81475;SDS011;70891;52.540;5.504;2023-06-22T01:14:43;33.70;;;19.10;;
81475;SDS011;70891;52.540;5.504;2023-06-22T01:17:19;32.00;;;18.63;;
81475;SDS011;70891;52.540;5.504;2023-06-22T01:19:45;41.85;;;22.73;;
81475;SDS011;70891;52.540;5.504;2023-06-22T01:22:17;37.50;;;18.30;;
81475;SDS011;70891;52.540;5.504;2023-06-22T01:30:10;33.03;;;16.92;;
81475;SDS011;70891;52.540;5.504;2023-06-22T01:32:37;33.42;;;17.58;;
81475;SDS011;70891;52.540;5.504;2023-06-22T01:35:04;30.00;;;16.95;;
81475;SDS011;70891;52.540;5.504;2023-06-22T01:37:34;29.88;;;16.40;;
81475;SDS011;70891;52.540;5.504;2023-06-22T01:40:02;34.80;;;17.67;;
81475;SDS011;70891;52.540;5.504;2023-06-22T01:42:30;36.13;;;18.63;;
81475;SDS011;70891;52.540;5.504;2023-06-22T01:44:56;33.05;;;17.90;;
81475;SDS011;70891;52.540;5.504;2023-06-22T01:47:23;33.10;;;16.58;;
81475;SDS011;70891;52.540;5.504;2023-06-22T01:49:49;28.85;;;15.25;;
81475;SDS011;70891;52.540;5.504;2023-06-22T01:52:16;31.38;;;16.73;;
81475;SDS011;70891;52.540;5.504;2023-06-22T01:54:42;36.60;;;18.60;;
81475;SDS011;70891;52.540;5.504;2023-06-22T01:57:07;29.43;;;17.00;;
81475;SDS011;70891;52.540;5.504;2023-06-22T01:59:39;36.33;;;20.48;;
81475;SDS011;70891;52.540;5.504;2023-06-22T02:02:13;33.80;;;18.38;;
81475;SDS011;70891;52.540;5.504;2023-06-22T02:07:08;40.13;;;20.33;;
81475;SDS011;70891;52.540;5.504;2023-06-22T02:09:37;33.20;;;18.63;;
81475;SDS011;70891;52.540;5.504;2023-06-22T02:12:07;41.90;;;20.60;;
81475;SDS011;70891;52.540;5.504;2023-06-22T02:14:35;43.28;;;22.38;;
81475;SDS011;70891;52.540;5.504;2023-06-22T02:17:01;39.05;;;21.40;;
81475;SDS011;70891;52.540;5.504;2023-06-22T02:19:27;39.92;;;20.65;;
81475;SDS011;70891;52.540;5.504;2023-06-22T02:21:53;42.65;;;22.38;;
81475;SDS011;70891;52.540;5.504;2023-06-22T02:24:18;44.20;;;22.85;;
81475;SDS011;70891;52.540;5.504;2023-06-22T02:26:43;36.33;;;19.57;;
81475;SDS011;70891;52.540;5.504;2023-06-22T02:29:10;41.08;;;21.60;;
81475;SDS011;70891;52.540;5.504;2023-06-22T02:31:35;37.17;;;20.00;;
81475;SDS011;70891;52.540;5.504;2023-06-22T02:34:04;38.97;;;19.38;;
81475;SDS011;70891;52.540;5.504;2023-06-22T02:36:29;35.37;;;19.20;;
81475;SDS011;70891;52.540;5.504;2023-06-22T02:38:55;35.95;;;18.17;;
81475;SDS011;70891;52.540;5.504;2023-06-22T02:41:23;39.97;;;21.95;;
81475;SDS011;70891;52.540;5.504;2023-06-22T02:43:49;37.20;;;20.10;;
81475;SDS011;70891;52.540;5.504;2023-06-22T02:46:14;39.43;;;20.27;;
81475;SDS011;70891;52.540;5.504;2023-06-22T02:48:40;33.25;;;18.45;;
81475;SDS011;70891;52.540;5.504;2023-06-22T02:51:05;40.10;;;19.67;;
81475;SDS011;70891;52.540;5.504;2023-06-22T02:53:34;41.10;;;20.95;;
81475;SDS011;70891;52.540;5.504;2023-06-22T02:56:01;36.65;;;20.33;;
81475;SDS011;70891;52.540;5.504;2023-06-22T02:58:28;37.55;;;18.60;;
81475;SDS011;70891;52.540;5.504;2023-06-22T03:00:53;34.67;;;18.83;;
81475;SDS011;70891;52.540;5.504;2023-06-22T03:03:19;39.55;;;20.20;;
81475;SDS011;70891;52.540;5.504;2023-06-22T03:05:44;39.22;;;21.27;;
81475;SDS011;70891;52.540;5.504;2023-06-22T03:08:10;43.70;;;22.63;;
81475;SDS011;70891;52.540;5.504;2023-06-22T03:10:35;39.73;;;19.47;;
81475;SDS011;70891;52.540;5.504;2023-06-22T03:13:00;40.42;;;20.33;;
81475;SDS011;70891;52.540;5.504;2023-06-22T03:15:26;38.20;;;20.42;;
81475;SDS011;70891;52.540;5.504;2023-06-22T03:17:54;39.67;;;20.70;;
81475;SDS011;70891;52.540;5.504;2023-06-22T03:22:45;32.07;;;17.77;;
81475;SDS011;70891;52.540;5.504;2023-06-22T03:25:10;28.98;;;16.90;;
81475;SDS011;70891;52.540;5.504;2023-06-22T03:27:38;41.67;;;21.13;;
81475;SDS011;70891;52.540;5.504;2023-06-22T03:30:04;38.00;;;20.73;;
81475;SDS011;70891;52.540;5.504;2023-06-22T03:32:32;41.45;;;21.30;;
81475;SDS011;70891;52.540;5.504;2023-06-22T03:34:57;39.58;;;20.48;;
81475;SDS011;70891;52.540;5.504;2023-06-22T03:37:23;46.05;;;23.25;;
81475;SDS011;70891;52.540;5.504;2023-06-22T03:39:52;38.40;;;20.90;;
81475;SDS011;70891;52.540;5.504;2023-06-22T03:44:43;42.42;;;21.52;;
81475;SDS011;70891;52.540;5.504;2023-06-22T03:49:37;32.92;;;18.88;;
81475;SDS011;70891;52.540;5.504;2023-06-22T03:52:03;33.40;;;18.55;;
81475;SDS011;70891;52.540;5.504;2023-06-22T03:54:29;38.00;;;20.38;;
81475;SDS011;70891;52.540;5.504;2023-06-22T03:56:55;38.38;;;21.55;;
81475;SDS011;70891;52.540;5.504;2023-06-22T03:59:21;45.40;;;23.75;;
81475;SDS011;70891;52.540;5.504;2023-06-22T04:01:47;40.80;;;21.53;;
81475;SDS011;70891;52.540;5.504;2023-06-22T04:04:12;38.17;;;20.70;;
81475;SDS011;70891;52.540;5.504;2023-06-22T04:06:37;40.40;;;21.45;;
81475;SDS011;70891;52.540;5.504;2023-06-22T04:09:03;39.70;;;22.33;;
81475;SDS011;70891;52.540;5.504;2023-06-22T04:11:28;38.73;;;22.00;;
81475;SDS011;70891;52.540;5.504;2023-06-22T04:16:19;36.63;;;20.87;;
81475;SDS011;70891;52.540;5.504;2023-06-22T04:18:44;42.07;;;22.37;;
81475;SDS011;70891;52.540;5.504;2023-06-22T04:21:10;35.13;;;19.73;;
81475;SDS011;70891;52.540;5.504;2023-06-22T04:23:35;33.60;;;18.60;;
81475;SDS011;70891;52.540;5.504;2023-06-22T04:26:01;33.65;;;19.05;;
81475;SDS011;70891;52.540;5.504;2023-06-22T04:28:26;43.78;;;23.92;;
81475;SDS011;70891;52.540;5.504;2023-06-22T04:30:51;37.85;;;21.77;;
81475;SDS011;70891;52.540;5.504;2023-06-22T04:33:17;35.13;;;20.00;;
81475;SDS011;70891;52.540;5.504;2023-06-22T04:35:44;44.33;;;24.00;;
81475;SDS011;70891;52.540;5.504;2023-06-22T04:38:11;44.85;;;23.92;;
81475;SDS011;70891;52.540;5.504;2023-06-22T04:40:38;33.45;;;19.20;;
81475;SDS011;70891;52.540;5.504;2023-06-22T04:43:03;48.15;;;24.40;;
81475;SDS011;70891;52.540;5.504;2023-06-22T04:45:31;45.15;;;23.88;;
81475;SDS011;70891;52.540;5.504;2023-06-22T04:47:56;52.05;;;26.05;;
81475;SDS011;70891;52.540;5.504;2023-06-22T04:50:22;45.45;;;24.80;;
81475;SDS011;70891;52.540;5.504;2023-06-22T04:52:48;57.50;;;28.10;;
81475;SDS011;70891;52.540;5.504;2023-06-22T04:55:14;59.47;;;30.65;;
81475;SDS011;70891;52.540;5.504;2023-06-22T04:57:46;58.13;;;27.55;;
81475;SDS011;70891;52.540;5.504;2023-06-22T05:02:42;38.63;;;22.60;;
81475;SDS011;70891;52.540;5.504;2023-06-22T05:05:09;44.42;;;24.17;;
81475;SDS011;70891;52.540;5.504;2023-06-22T05:07:38;45.83;;;25.95;;
81475;SDS011;70891;52.540;5.504;2023-06-22T05:10:08;66.65;;;34.80;;
81475;SDS011;70891;52.540;5.504;2023-06-22T05:12:35;46.83;;;25.42;;
81475;SDS011;70891;52.540;5.504;2023-06-22T05:15:00;51.42;;;27.15;;
81475;SDS011;70891;52.540;5.504;2023-06-22T05:17:26;61.75;;;32.83;;
81475;SDS011;70891;52.540;5.504;2023-06-22T05:19:52;61.70;;;33.13;;
81475;SDS011;70891;52.540;5.504;2023-06-22T05:22:17;55.67;;;30.73;;
81475;SDS011;70891;52.540;5.504;2023-06-22T05:24:43;50.10;;;28.00;;
81475;SDS011;70891;52.540;5.504;2023-06-22T05:27:11;50.90;;;28.23;;
81475;SDS011;70891;52.540;5.504;2023-06-22T05:29:36;53.53;;;29.92;;
81475;SDS011;70891;52.540;5.504;2023-06-22T05:32:03;46.22;;;27.77;;
81475;SDS011;70891;52.540;5.504;2023-06-22T05:34:28;48.25;;;29.15;;
81475;SDS011;70891;52.540;5.504;2023-06-22T05:36:54;52.00;;;28.33;;
81475;SDS011;70891;52.540;5.504;2023-06-22T05:39:19;48.08;;;28.40;;
81475;SDS011;70891;52.540;5.504;2023-06-22T05:41:45;44.55;;;27.60;;
81475;SDS011;70891;52.540;5.504;2023-06-22T05:44:11;46.08;;;27.00;;
81475;SDS011;70891;52.540;5.504;2023-06-22T05:46:36;43.30;;;25.67;;
81475;SDS011;70891;52.540;5.504;2023-06-22T05:49:02;42.08;;;24.38;;
81475;SDS011;70891;52.540;5.504;2023-06-22T05:51:27;36.30;;;23.37;;
81475;SDS011;70891;52.540;5.504;2023-06-22T05:53:53;38.13;;;23.87;;
81475;SDS011;70891;52.540;5.504;2023-06-22T05:56:18;39.92;;;23.70;;
81475;SDS011;70891;52.540;5.504;2023-06-22T05:58:43;39.80;;;23.53;;
81475;SDS011;70891;52.540;5.504;2023-06-22T06:01:09;37.30;;;23.52;;
81475;SDS011;70891;52.540;5.504;2023-06-22T06:03:34;33.13;;;22.92;;
81475;SDS011;70891;52.540;5.504;2023-06-22T06:06:05;33.63;;;22.55;;
81475;SDS011;70891;52.540;5.504;2023-06-22T06:08:31;32.35;;;21.80;;
81475;SDS011;70891;52.540;5.504;2023-06-22T06:10:56;32.83;;;22.20;;
81475;SDS011;70891;52.540;5.504;2023-06-22T06:13:22;32.80;;;20.83;;
81475;SDS011;70891;52.540;5.504;2023-06-22T06:15:48;33.58;;;21.48;;
81475;SDS011;70891;52.540;5.504;2023-06-22T06:18:13;27.50;;;19.90;;
81475;SDS011;70891;52.540;5.504;2023-06-22T06:20:38;29.27;;;20.10;;
81475;SDS011;70891;52.540;5.504;2023-06-22T06:23:04;26.57;;;19.00;;
81475;SDS011;70891;52.540;5.504;2023-06-22T06:25:29;27.67;;;19.87;;
81475;SDS011;70891;52.540;5.504;2023-06-22T06:27:54;25.87;;;18.87;;
81475;SDS011;70891;52.540;5.504;2023-06-22T06:30:20;31.63;;;20.23;;
81475;SDS011;70891;52.540;5.504;2023-06-22T06:32:46;31.08;;;19.80;;
81475;SDS011;70891;52.540;5.504;2023-06-22T06:35:12;32.60;;;19.60;;
81475;SDS011;70891;52.540;5.504;2023-06-22T06:37:41;26.92;;;19.55;;
81475;SDS011;70891;52.540;5.504;2023-06-22T06:40:08;31.38;;;20.20;;
81475;SDS011;70891;52.540;5.504;2023-06-22T06:42:38;28.40;;;20.13;;
81475;SDS011;70891;52.540;5.504;2023-06-22T06:45:06;27.83;;;19.40;;
81475;SDS011;70891;52.540;5.504;2023-06-22T06:47:35;29.40;;;19.70;;
81475;SDS011;70891;52.540;5.504;2023-06-22T06:50:00;29.15;;;20.13;;
81475;SDS011;70891;52.540;5.504;2023-06-22T06:52:25;26.83;;;19.80;;
81475;SDS011;70891;52.540;5.504;2023-06-22T06:54:51;30.45;;;19.40;;
81475;SDS011;70891;52.540;5.504;2023-06-22T06:57:17;26.50;;;20.10;;
81475;SDS011;70891;52.540;5.504;2023-06-22T06:59:43;26.48;;;20.35;;
81475;SDS011;70891;52.540;5.504;2023-06-22T07:02:08;29.73;;;20.05;;
81475;SDS011;70891;52.540;5.504;2023-06-22T07:04:34;27.05;;;19.73;;
81475;SDS011;70891;52.540;5.504;2023-06-22T07:07:00;28.57;;;19.63;;
81475;SDS011;70891;52.540;5.504;2023-06-22T07:09:27;30.20;;;20.70;;
81475;SDS011;70891;52.540;5.504;2023-06-22T07:11:52;24.98;;;17.77;;
81475;SDS011;70891;52.540;5.504;2023-06-22T07:14:17;26.70;;;18.73;;
81475;SDS011;70891;52.540;5.504;2023-06-22T07:16:42;26.50;;;19.00;;
81475;SDS011;70891;52.540;5.504;2023-06-22T07:19:08;24.40;;;18.67;;
81475;SDS011;70891;52.540;5.504;2023-06-22T07:21:33;27.47;;;18.73;;
81475;SDS011;70891;52.540;5.504;2023-06-22T07:23:58;26.13;;;18.23;;
81475;SDS011;70891;52.540;5.504;2023-06-22T07:26:24;27.50;;;17.60;;
81475;SDS011;70891;52.540;5.504;2023-06-22T07:28:49;23.13;;;17.53;;
81475;SDS011;70891;52.540;5.504;2023-06-22T07:31:15;26.27;;;18.17;;
81475;SDS011;70891;52.540;5.504;2023-06-22T07:33:41;26.50;;;18.65;;
81475;SDS011;70891;52.540;5.504;2023-06-22T07:36:06;26.13;;;18.55;;
81475;SDS011;70891;52.540;5.504;2023-06-22T07:38:33;27.40;;;19.45;;
81475;SDS011;70891;52.540;5.504;2023-06-22T07:41:00;27.15;;;19.33;;
81475;SDS011;70891;52.540;5.504;2023-06-22T07:43:25;22.20;;;17.35;;
81475;SDS011;70891;52.540;5.504;2023-06-22T07:45:50;18.58;;;15.40;;
81475;SDS011;70891;52.540;5.504;2023-06-22T07:48:22;19.00;;;14.88;;
81475;SDS011;70891;52.540;5.504;2023-06-22T07:50:47;23.35;;;15.48;;
81475;SDS011;70891;52.540;5.504;2023-06-22T07:53:13;20.80;;;14.80;;
81475;SDS011;70891;52.540;5.504;2023-06-22T07:55:38;19.95;;;14.40;;
81475;SDS011;70891;52.540;5.504;2023-06-22T07:58:04;16.43;;;12.80;;
81475;SDS011;70891;52.540;5.504;2023-06-22T08:00:29;16.27;;;13.23;;
81475;SDS011;70891;52.540;5.504;2023-06-22T08:02:54;17.40;;;12.93;;
81475;SDS011;70891;52.540;5.504;2023-06-22T08:05:19;19.95;;;13.95;;
81475;SDS011;70891;52.540;5.504;2023-06-22T08:07:45;21.70;;;14.00;;
81475;SDS011;70891;52.540;5.504;2023-06-22T08:10:11;15.63;;;13.00;;
81475;SDS011;70891;52.540;5.504;2023-06-22T08:12:37;17.35;;;12.55;;
81475;SDS011;70891;52.540;5.504;2023-06-22T08:15:03;18.08;;;12.73;;
81475;SDS011;70891;52.540;5.504;2023-06-22T08:17:29;18.70;;;12.68;;
81475;SDS011;70891;52.540;5.504;2023-06-22T08:19:56;16.25;;;11.75;;
81475;SDS011;70891;52.540;5.504;2023-06-22T08:22:21;17.00;;;12.18;;
81475;SDS011;70891;52.540;5.504;2023-06-22T08:24:47;15.63;;;12.52;;
81475;SDS011;70891;52.540;5.504;2023-06-22T08:27:12;16.80;;;12.37;;
81475;SDS011;70891;52.540;5.504;2023-06-22T08:29:38;16.90;;;12.82;;
81475;SDS011;70891;52.540;5.504;2023-06-22T08:32:04;16.52;;;12.13;;
81475;SDS011;70891;52.540;5.504;2023-06-22T08:34:30;16.80;;;11.90;;
81475;SDS011;70891;52.540;5.504;2023-06-22T08:36:55;15.00;;;12.20;;
81475;SDS011;70891;52.540;5.504;2023-06-22T08:39:20;17.50;;;12.80;;
81475;SDS011;70891;52.540;5.504;2023-06-22T08:41:46;17.90;;;12.60;;
81475;SDS011;70891;52.540;5.504;2023-06-22T08:44:12;16.95;;;13.32;;
81475;SDS011;70891;52.540;5.504;2023-06-22T08:46:38;20.27;;;11.85;;
81475;SDS011;70891;52.540;5.504;2023-06-22T08:49:05;16.38;;;12.85;;
81475;SDS011;70891;52.540;5.504;2023-06-22T08:51:31;18.42;;;12.57;;
81475;SDS011;70891;52.540;5.504;2023-06-22T08:53:57;14.15;;;11.77;;
81475;SDS011;70891;52.540;5.504;2023-06-22T08:56:22;16.90;;;12.20;;
81475;SDS011;70891;52.540;5.504;2023-06-22T08:58:47;14.23;;;11.82;;
81475;SDS011;70891;52.540;5.504;2023-06-22T09:01:13;17.10;;;12.13;;
81475;SDS011;70891;52.540;5.504;2023-06-22T09:03:40;15.40;;;11.52;;
81475;SDS011;70891;52.540;5.504;2023-06-22T09:06:05;16.33;;;11.88;;
81475;SDS011;70891;52.540;5.504;2023-06-22T09:08:31;13.50;;;11.68;;
81475;SDS011;70891;52.540;5.504;2023-06-22T09:10:57;15.00;;;12.02;;
81475;SDS011;70891;52.540;5.504;2023-06-22T09:13:22;13.70;;;11.50;;
81475;SDS011;70891;52.540;5.504;2023-06-22T09:15:47;15.53;;;11.73;;
81475;SDS011;70891;52.540;5.504;2023-06-22T09:18:13;14.68;;;11.23;;
81475;SDS011;70891;52.540;5.504;2023-06-22T09:20:38;15.88;;;12.23;;
81475;SDS011;70891;52.540;5.504;2023-06-22T09:23:04;15.63;;;10.87;;
81475;SDS011;70891;52.540;5.504;2023-06-22T09:25:29;15.83;;;12.37;;
81475;SDS011;70891;52.540;5.504;2023-06-22T09:27:54;13.47;;;11.53;;
81475;SDS011;70891;52.540;5.504;2023-06-22T09:30:20;15.30;;;11.17;;
81475;SDS011;70891;52.540;5.504;2023-06-22T09:32:45;13.45;;;10.88;;
81475;SDS011;70891;52.540;5.504;2023-06-22T09:35:10;13.45;;;10.48;;
81475;SDS011;70891;52.540;5.504;2023-06-22T09:37:38;12.68;;;10.77;;
81475;SDS011;70891;52.540;5.504;2023-06-22T09:40:03;14.15;;;10.85;;
81475;SDS011;70891;52.540;5.504;2023-06-22T09:42:41;14.32;;;10.60;;
81475;SDS011;70891;52.540;5.504;2023-06-22T09:45:06;12.77;;;10.43;;
81475;SDS011;70891;52.540;5.504;2023-06-22T09:47:32;14.27;;;11.38;;
81475;SDS011;70891;52.540;5.504;2023-06-22T09:49:57;15.23;;;9.73;;
81475;SDS011;70891;52.540;5.504;2023-06-22T09:52:24;10.38;;;8.98;;
81475;SDS011;70891;52.540;5.504;2023-06-22T09:54:50;12.55;;;9.68;;
81475;SDS011;70891;52.540;5.504;2023-06-22T09:57:15;15.77;;;10.07;;
81475;SDS011;70891;52.540;5.504;2023-06-22T09:59:40;13.17;;;9.93;;
81475;SDS011;70891;52.540;5.504;2023-06-22T10:02:06;13.52;;;10.20;;
81475;SDS011;70891;52.540;5.504;2023-06-22T10:04:32;12.07;;;9.77;;
81475;SDS011;70891;52.540;5.504;2023-06-22T10:06:58;10.10;;;8.75;;
81475;SDS011;70891;52.540;5.504;2023-06-22T10:09:24;9.93;;;8.43;;
81475;SDS011;70891;52.540;5.504;2023-06-22T10:11:49;10.77;;;8.83;;
81475;SDS011;70891;52.540;5.504;2023-06-22T10:14:14;9.65;;;7.70;;
81475;SDS011;70891;52.540;5.504;2023-06-22T10:16:40;11.23;;;9.07;;
81475;SDS011;70891;52.540;5.504;2023-06-22T10:19:06;9.38;;;7.03;;
81475;SDS011;70891;52.540;5.504;2023-06-22T10:21:31;9.80;;;7.40;;
81475;SDS011;70891;52.540;5.504;2023-06-22T10:24:01;11.68;;;7.40;;
81475;SDS011;70891;52.540;5.504;2023-06-22T10:26:31;9.98;;;6.93;;
81475;SDS011;70891;52.540;5.504;2023-06-22T10:28:57;10.75;;;8.57;;
81475;SDS011;70891;52.540;5.504;2023-06-22T10:31:22;11.50;;;8.35;;
81475;SDS011;70891;52.540;5.504;2023-06-22T10:33:48;12.20;;;7.57;;
81475;SDS011;70891;52.540;5.504;2023-06-22T10:36:14;13.32;;;8.85;;
81475;SDS011;70891;52.540;5.504;2023-06-22T10:38:40;11.07;;;8.55;;
81475;SDS011;70891;52.540;5.504;2023-06-22T10:41:05;12.67;;;8.63;;
81475;SDS011;70891;52.540;5.504;2023-06-22T10:43:30;12.75;;;8.80;;
81475;SDS011;70891;52.540;5.504;2023-06-22T10:45:56;11.90;;;8.47;;
81475;SDS011;70891;52.540;5.504;2023-06-22T10:48:21;11.27;;;7.67;;
81475;SDS011;70891;52.540;5.504;2023-06-22T10:50:46;10.60;;;8.20;;
81475;SDS011;70891;52.540;5.504;2023-06-22T10:53:12;10.57;;;7.68;;
81475;SDS011;70891;52.540;5.504;2023-06-22T10:55:37;12.43;;;9.13;;
81475;SDS011;70891;52.540;5.504;2023-06-22T10:58:02;10.68;;;7.97;;
81475;SDS011;70891;52.540;5.504;2023-06-22T11:00:28;12.57;;;7.00;;
81475;SDS011;70891;52.540;5.504;2023-06-22T11:02:53;9.45;;;6.68;;
81475;SDS011;70891;52.540;5.504;2023-06-22T11:05:19;11.23;;;7.10;;
81475;SDS011;70891;52.540;5.504;2023-06-22T11:07:44;10.93;;;7.80;;
81475;SDS011;70891;52.540;5.504;2023-06-22T11:10:10;13.18;;;8.32;;
81475;SDS011;70891;52.540;5.504;2023-06-22T11:12:36;12.25;;;7.72;;
81475;SDS011;70891;52.540;5.504;2023-06-22T11:15:01;11.02;;;8.25;;
81475;SDS011;70891;52.540;5.504;2023-06-22T11:17:27;13.60;;;8.63;;
81475;SDS011;70891;52.540;5.504;2023-06-22T11:19:52;13.43;;;8.80;;
81475;SDS011;70891;52.540;5.504;2023-06-22T11:22:17;13.07;;;7.77;;
81475;SDS011;70891;52.540;5.504;2023-06-22T11:24:42;12.85;;;7.93;;
81475;SDS011;70891;52.540;5.504;2023-06-22T11:27:08;11.27;;;7.72;;
81475;SDS011;70891;52.540;5.504;2023-06-22T11:29:33;10.77;;;7.75;;
81475;SDS011;70891;52.540;5.504;2023-06-22T11:31:59;11.73;;;7.72;;
81475;SDS011;70891;52.540;5.504;2023-06-22T11:34:24;11.20;;;7.43;;
81475;SDS011;70891;52.540;5.504;2023-06-22T11:36:49;10.70;;;7.50;;
81475;SDS011;70891;52.540;5.504;2023-06-22T11:39:15;12.80;;;7.70;;
81475;SDS011;70891;52.540;5.504;2023-06-22T11:41:40;12.32;;;7.32;;
81475;SDS011;70891;52.540;5.504;2023-06-22T11:44:07;8.98;;;6.57;;
81475;SDS011;70891;52.540;5.504;2023-06-22T11:46:32;9.18;;;6.88;;
81475;SDS011;70891;52.540;5.504;2023-06-22T11:48:58;9.00;;;6.28;;
81475;SDS011;70891;52.540;5.504;2023-06-22T11:51:23;10.85;;;6.35;;
81475;SDS011;70891;52.540;5.504;2023-06-22T11:53:48;9.63;;;6.35;;
81475;SDS011;70891;52.540;5.504;2023-06-22T11:56:14;9.87;;;6.43;;
81475;SDS011;70891;52.540;5.504;2023-06-22T15:00:49;16.30;;;10.68;;
81475;SDS011;70891;52.540;5.504;2023-06-22T15:03:27;13.68;;;10.27;;
81475;SDS011;70891;52.540;5.504;2023-06-22T15:05:55;15.95;;;12.27;;
81475;SDS011;70891;52.540;5.504;2023-06-22T15:08:24;18.40;;;12.60;;
81475;SDS011;70891;52.540;5.504;2023-06-22T15:10:51;17.63;;;12.95;;
81475;SDS011;70891;52.540;5.504;2023-06-22T15:13:16;17.83;;;13.32;;
81475;SDS011;70891;52.540;5.504;2023-06-22T15:15:42;17.75;;;12.77;;
81475;SDS011;70891;52.540;5.504;2023-06-22T15:18:08;19.27;;;13.93;;
81475;SDS011;70891;52.540;5.504;2023-06-22T15:20:33;18.30;;;13.52;;
81475;SDS011;70891;52.540;5.504;2023-06-22T15:22:59;19.15;;;14.52;;
81475;SDS011;70891;52.540;5.504;2023-06-22T15:25:24;20.80;;;15.98;;
81475;SDS011;70891;52.540;5.504;2023-06-22T15:27:50;22.20;;;16.33;;
81475;SDS011;70891;52.540;5.504;2023-06-22T15:30:15;19.23;;;14.80;;
81475;SDS011;70891;52.540;5.504;2023-06-22T15:32:42;21.20;;;16.08;;
81475;SDS011;70891;52.540;5.504;2023-06-22T15:35:09;23.48;;;15.93;;
81475;SDS011;70891;52.540;5.504;2023-06-22T15:37:35;23.20;;;16.63;;
81475;SDS011;70891;52.540;5.504;2023-06-22T15:40:00;20.30;;;15.10;;
81475;SDS011;70891;52.540;5.504;2023-06-22T15:42:26;21.88;;;16.25;;
81475;SDS011;70891;52.540;5.504;2023-06-22T15:44:51;19.60;;;15.73;;
81475;SDS011;70891;52.540;5.504;2023-06-22T15:47:17;23.05;;;16.15;;
81475;SDS011;70891;52.540;5.504;2023-06-22T15:49:46;20.15;;;16.08;;
81475;SDS011;70891;52.540;5.504;2023-06-22T15:52:12;22.30;;;16.05;;
81475;SDS011;70891;52.540;5.504;2023-06-22T15:54:38;20.92;;;16.20;;
81475;SDS011;70891;52.540;5.504;2023-06-22T15:57:04;21.17;;;16.60;;
81475;SDS011;70891;52.540;5.504;2023-06-22T15:59:29;21.58;;;15.88;;
81475;SDS011;70891;52.540;5.504;2023-06-22T16:01:55;24.40;;;15.68;;
81475;SDS011;70891;52.540;5.504;2023-06-22T16:04:20;24.20;;;16.83;;
81475;SDS011;70891;52.540;5.504;2023-06-22T16:06:45;24.17;;;16.20;;
81475;SDS011;70891;52.540;5.504;2023-06-22T16:09:11;22.57;;;16.10;;
81475;SDS011;70891;52.540;5.504;2023-06-22T16:11:36;20.80;;;15.63;;
81475;SDS011;70891;52.540;5.504;2023-06-22T16:14:01;24.02;;;17.08;;
81475;SDS011;70891;52.540;5.504;2023-06-22T16:16:30;24.43;;;16.20;;
81475;SDS011;70891;52.540;5.504;2023-06-22T16:18:55;19.08;;;13.93;;
81475;SDS011;70891;52.540;5.504;2023-06-22T16:21:21;22.35;;;13.85;;
81475;SDS011;70891;52.540;5.504;2023-06-22T16:23:46;17.67;;;12.65;;
81475;SDS011;70891;52.540;5.504;2023-06-22T16:26:12;17.13;;;11.68;;
81475;SDS011;70891;52.540;5.504;2023-06-22T16:28:37;17.38;;;11.20;;
81475;SDS011;70891;52.540;5.504;2023-06-22T16:31:03;16.90;;;10.33;;
81475;SDS011;70891;52.540;5.504;2023-06-22T16:33:28;12.00;;;8.73;;
81475;SDS011;70891;52.540;5.504;2023-06-22T16:35:53;13.00;;;7.73;;
81475;SDS011;70891;52.540;5.504;2023-06-22T16:38:19;11.10;;;7.20;;
81475;SDS011;70891;52.540;5.504;2023-06-22T16:40:44;11.80;;;7.17;;
81475;SDS011;70891;52.540;5.504;2023-06-22T16:43:09;11.82;;;8.02;;
81475;SDS011;70891;52.540;5.504;2023-06-22T16:45:35;11.57;;;7.20;;
81475;SDS011;70891;52.540;5.504;2023-06-22T16:48:00;13.13;;;7.72;;
81475;SDS011;70891;52.540;5.504;2023-06-22T16:50:29;10.18;;;6.97;;
81475;SDS011;70891;52.540;5.504;2023-06-22T16:52:54;10.03;;;7.00;;
81475;SDS011;70891;52.540;5.504;2023-06-22T16:55:20;12.60;;;8.00;;
81475;SDS011;70891;52.540;5.504;2023-06-22T16:57:47;9.65;;;6.75;;
81475;SDS011;70891;52.540;5.504;2023-06-22T17:00:15;11.57;;;7.38;;
81475;SDS011;70891;52.540;5.504;2023-06-22T17:02:50;11.80;;;7.97;;
81475;SDS011;70891;52.540;5.504;2023-06-22T17:07:48;10.75;;;6.93;;
81475;SDS011;70891;52.540;5.504;2023-06-22T17:10:19;12.32;;;6.55;;
81475;SDS011;70891;52.540;5.504;2023-06-22T17:12:45;12.32;;;6.88;;
81475;SDS011;70891;52.540;5.504;2023-06-22T17:15:15;9.18;;;6.38;;
81475;SDS011;70891;52.540;5.504;2023-06-22T17:17:41;10.07;;;6.70;;
81475;SDS011;70891;52.540;5.504;2023-06-22T17:20:18;10.02;;;6.53;;
81475;SDS011;70891;52.540;5.504;2023-06-22T17:22:46;13.15;;;6.53;;
81475;SDS011;70891;52.540;5.504;2023-06-22T17:25:17;8.50;;;5.88;;
81475;SDS011;70891;52.540;5.504;2023-06-22T17:27:58;7.75;;;5.72;;
81475;SDS011;70891;52.540;5.504;2023-06-22T17:30:29;9.75;;;5.70;;
81475;SDS011;70891;52.540;5.504;2023-06-22T17:32:58;9.93;;;5.80;;
81475;SDS011;70891;52.540;5.504;2023-06-22T17:35:24;8.18;;;4.70;;
81475;SDS011;70891;52.540;5.504;2023-06-22T17:37:51;8.55;;;4.88;;
81475;SDS011;70891;52.540;5.504;2023-06-22T17:40:18;6.78;;;3.88;;
81475;SDS011;70891;52.540;5.504;2023-06-22T17:43:04;6.78;;;4.25;;
81475;SDS011;70891;52.540;5.504;2023-06-22T17:45:30;6.53;;;3.47;;
81475;SDS011;70891;52.540;5.504;2023-06-22T17:47:56;6.47;;;3.40;;